sensor_id;sensor_type;location;lat;lon;timestamp;pressure;altitude;pressure_sealevel;temperature;humidity
55610;BME280;41486;52.502;13.486;2022-07-18T00:00:08;101949.78;;;17.19;75.99
55610;BME280;41486;52.502;13.486;2022-07-18T00:02:36;101947.06;;;17.30;75.61
55610;BME280;41486;52.502;13.486;2022-07-18T00:05:05;101946.69;;;17.35;75.27
55610;BME280;41486;52.502;13.486;2022-07-18T00:07:33;101949.59;;;17.53;71.81
55610;BME280;41486;52.502;13.486;2022-07-18T00:10:01;101943.63;;;17.61;71.24
55610;BME280;41486;52.502;13.486;2022-07-18T00:12:29;101942.25;;;17.66;71.39
55610;BME280;41486;52.502;13.486;2022-07-18T00:14:59;101935.84;;;17.79;66.87
55610;BME280;41486;52.502;13.486;2022-07-18T00:17:27;101930.31;;;17.92;65.31
55610;BME280;41486;52.502;13.486;2022-07-18T00:19:54;101926.47;;;18.06;63.84
55610;BME280;41486;52.502;13.486;2022-07-18T00:22:22;101928.03;;;18.18;62.19
55610;BME280;41486;52.502;13.486;2022-07-18T00:24:50;101920.97;;;17.97;68.24
55610;BME280;41486;52.502;13.486;2022-07-18T00:27:18;101928.09;;;17.97;67.59
55610;BME280;41486;52.502;13.486;2022-07-18T00:29:46;101922.78;;;17.76;71.46
55610;BME280;41486;52.502;13.486;2022-07-18T00:32:16;101931.31;;;17.70;72.91
55610;BME280;41486;52.502;13.486;2022-07-18T00:34:44;101931.22;;;17.50;74.57
55610;BME280;41486;52.502;13.486;2022-07-18T00:37:12;101945.38;;;17.50;73.62
55610;BME280;41486;52.502;13.486;2022-07-18T00:39:40;101941.41;;;17.45;71.51
55610;BME280;41486;52.502;13.486;2022-07-18T00:42:08;101940.69;;;17.43;70.36
55610;BME280;41486;52.502;13.486;2022-07-18T00:44:36;101947.84;;;17.42;70.72
55610;BME280;41486;52.502;13.486;2022-07-18T00:47:04;101946.88;;;17.43;70.18
55610;BME280;41486;52.502;13.486;2022-07-18T00:49:33;101952.63;;;17.48;68.85
55610;BME280;41486;52.502;13.486;2022-07-18T00:52:01;101953.78;;;17.56;69.46
55610;BME280;41486;52.502;13.486;2022-07-18T00:54:29;101957.75;;;17.61;69.37
55610;BME280;41486;52.502;13.486;2022-07-18T00:56:59;101950.38;;;17.96;64.82
55610;BME280;41486;52.502;13.486;2022-07-18T00:59:28;101948.53;;;18.27;62.37
55610;BME280;41486;52.502;13.486;2022-07-18T01:02:10;101946.59;;;18.39;61.16
55610;BME280;41486;52.502;13.486;2022-07-18T01:04:39;101949.44;;;18.57;59.90
55610;BME280;41486;52.502;13.486;2022-07-18T01:07:08;101946.34;;;18.72;58.47
55610;BME280;41486;52.502;13.486;2022-07-18T01:09:36;101951.41;;;18.85;57.80
55610;BME280;41486;52.502;13.486;2022-07-18T01:12:05;101942.59;;;18.84;57.57
55610;BME280;41486;52.502;13.486;2022-07-18T01:14:34;101947.78;;;18.86;57.25
55610;BME280;41486;52.502;13.486;2022-07-18T01:17:11;101944.81;;;18.79;57.21
55610;BME280;41486;52.502;13.486;2022-07-18T01:19:41;101939.91;;;18.84;57.39
55610;BME280;41486;52.502;13.486;2022-07-18T01:22:10;101944.53;;;18.82;57.18
55610;BME280;41486;52.502;13.486;2022-07-18T01:24:40;101944.97;;;18.77;57.89
55610;BME280;41486;52.502;13.486;2022-07-18T01:27:08;101946.22;;;18.83;57.30
55610;BME280;41486;52.502;13.486;2022-07-18T01:29:37;101934.81;;;18.32;65.32
55610;BME280;41486;52.502;13.486;2022-07-18T01:32:06;101935.72;;;17.80;68.72
55610;BME280;41486;52.502;13.486;2022-07-18T01:34:34;101930.81;;;17.55;70.77
55610;BME280;41486;52.502;13.486;2022-07-18T01:37:02;101928.06;;;17.35;71.58
55610;BME280;41486;52.502;13.486;2022-07-18T01:39:32;101920.22;;;17.33;71.86
55610;BME280;41486;52.502;13.486;2022-07-18T01:42:02;101926.13;;;17.16;72.83
55610;BME280;41486;52.502;13.486;2022-07-18T01:44:31;101926.00;;;16.85;74.58
55610;BME280;41486;52.502;13.486;2022-07-18T01:46:59;101931.56;;;16.70;75.36
55610;BME280;41486;52.502;13.486;2022-07-18T01:49:27;101929.84;;;16.81;73.94
55610;BME280;41486;52.502;13.486;2022-07-18T01:51:57;101938.25;;;16.65;74.88
55610;BME280;41486;52.502;13.486;2022-07-18T01:54:28;101934.13;;;16.72;75.11
55610;BME280;41486;52.502;13.486;2022-07-18T01:56:58;101948.47;;;16.81;74.32
55610;BME280;41486;52.502;13.486;2022-07-18T01:59:27;101946.34;;;16.63;74.94
55610;BME280;41486;52.502;13.486;2022-07-18T02:01:55;101940.50;;;16.81;74.55
55610;BME280;41486;52.502;13.486;2022-07-18T02:04:23;101940.69;;;16.56;75.92
55610;BME280;41486;52.502;13.486;2022-07-18T02:07:11;101943.75;;;16.40;76.87
55610;BME280;41486;52.502;13.486;2022-07-18T02:09:39;101941.34;;;16.37;77.41
55610;BME280;41486;52.502;13.486;2022-07-18T02:12:08;101949.56;;;16.34;77.96
55610;BME280;41486;52.502;13.486;2022-07-18T02:14:36;101950.16;;;16.27;78.77
55610;BME280;41486;52.502;13.486;2022-07-18T02:17:04;101937.88;;;16.26;78.81
55610;BME280;41486;52.502;13.486;2022-07-18T02:19:32;101939.44;;;16.17;79.31
55610;BME280;41486;52.502;13.486;2022-07-18T02:22:00;101937.41;;;16.09;79.63
55610;BME280;41486;52.502;13.486;2022-07-18T02:24:28;101935.72;;;16.08;80.07
55610;BME280;41486;52.502;13.486;2022-07-18T02:26:56;101931.84;;;16.01;80.63
55610;BME280;41486;52.502;13.486;2022-07-18T02:29:26;101926.41;;;16.02;80.76
55610;BME280;41486;52.502;13.486;2022-07-18T02:31:54;101925.22;;;15.95;81.33
55610;BME280;41486;52.502;13.486;2022-07-18T02:34:22;101921.56;;;16.07;80.69
55610;BME280;41486;52.502;13.486;2022-07-18T02:36:51;101918.22;;;15.94;81.35
55610;BME280;41486;52.502;13.486;2022-07-18T02:39:19;101924.81;;;15.77;82.46
55610;BME280;41486;52.502;13.486;2022-07-18T02:41:47;101927.72;;;15.74;82.73
55610;BME280;41486;52.502;13.486;2022-07-18T02:44:15;101930.09;;;15.66;83.48
55610;BME280;41486;52.502;13.486;2022-07-18T02:46:44;101921.06;;;15.57;83.99
55610;BME280;41486;52.502;13.486;2022-07-18T02:49:12;101919.72;;;15.51;84.22
55610;BME280;41486;52.502;13.486;2022-07-18T02:51:55;101921.53;;;15.62;83.57
55610;BME280;41486;52.502;13.486;2022-07-18T02:54:24;101928.78;;;15.60;83.96
55610;BME280;41486;52.502;13.486;2022-07-18T02:56:53;101920.47;;;15.53;84.62
55610;BME280;41486;52.502;13.486;2022-07-18T02:59:21;101926.13;;;15.49;84.78
55610;BME280;41486;52.502;13.486;2022-07-18T03:01:50;101920.31;;;15.43;84.91
55610;BME280;41486;52.502;13.486;2022-07-18T03:04:19;101922.97;;;15.43;85.08
55610;BME280;41486;52.502;13.486;2022-07-18T03:06:48;101930.22;;;15.41;85.47
55610;BME280;41486;52.502;13.486;2022-07-18T03:09:17;101920.03;;;15.35;85.86
55610;BME280;41486;52.502;13.486;2022-07-18T03:11:45;101922.22;;;15.30;86.04
55610;BME280;41486;52.502;13.486;2022-07-18T03:14:14;101921.00;;;15.23;86.27
55610;BME280;41486;52.502;13.486;2022-07-18T03:16:42;101920.31;;;15.32;86.29
55610;BME280;41486;52.502;13.486;2022-07-18T03:19:11;101925.00;;;15.40;86.07
55610;BME280;41486;52.502;13.486;2022-07-18T03:21:39;101922.34;;;15.40;85.72
55610;BME280;41486;52.502;13.486;2022-07-18T03:24:07;101918.75;;;15.41;85.42
55610;BME280;41486;52.502;13.486;2022-07-18T03:26:35;101924.53;;;15.35;85.90
55610;BME280;41486;52.502;13.486;2022-07-18T03:29:03;101921.97;;;15.22;86.62
55610;BME280;41486;52.502;13.486;2022-07-18T03:31:31;101922.16;;;15.19;87.01
55610;BME280;41486;52.502;13.486;2022-07-18T03:33:59;101919.25;;;15.10;87.57
55610;BME280;41486;52.502;13.486;2022-07-18T03:36:28;101910.13;;;15.14;87.56
55610;BME280;41486;52.502;13.486;2022-07-18T03:38:56;101918.22;;;15.24;87.50
55610;BME280;41486;52.502;13.486;2022-07-18T03:41:24;101920.13;;;15.22;87.22
55610;BME280;41486;52.502;13.486;2022-07-18T03:43:52;101912.66;;;15.16;87.60
55610;BME280;41486;52.502;13.486;2022-07-18T03:46:21;101914.22;;;15.19;88.09
55610;BME280;41486;52.502;13.486;2022-07-18T03:48:50;101914.22;;;15.19;88.53
55610;BME280;41486;52.502;13.486;2022-07-18T03:51:18;101925.53;;;15.09;89.15
55610;BME280;41486;52.502;13.486;2022-07-18T03:53:47;101912.78;;;15.14;88.55
55610;BME280;41486;52.502;13.486;2022-07-18T03:56:15;101917.97;;;15.16;89.25
55610;BME280;41486;52.502;13.486;2022-07-18T03:58:43;101926.03;;;15.14;89.34
55610;BME280;41486;52.502;13.486;2022-07-18T04:01:11;101922.09;;;15.20;89.29
55610;BME280;41486;52.502;13.486;2022-07-18T04:03:39;101927.72;;;15.16;89.60
55610;BME280;41486;52.502;13.486;2022-07-18T04:06:07;101922.16;;;15.19;89.56
55610;BME280;41486;52.502;13.486;2022-07-18T04:08:35;101925.44;;;15.22;89.95
55610;BME280;41486;52.502;13.486;2022-07-18T04:11:05;101917.84;;;15.18;90.14
55610;BME280;41486;52.502;13.486;2022-07-18T04:13:33;101932.34;;;15.25;89.68
55610;BME280;41486;52.502;13.486;2022-07-18T04:16:01;101921.47;;;15.28;89.18
55610;BME280;41486;52.502;13.486;2022-07-18T04:18:29;101920.91;;;15.36;89.14
55610;BME280;41486;52.502;13.486;2022-07-18T04:21:03;101927.56;;;15.41;nan
55610;BME280;41486;52.502;13.486;2022-07-18T04:23:31;101921.53;;;15.51;87.43
55610;BME280;41486;52.502;13.486;2022-07-18T04:25:59;101920.09;;;15.58;87.45
55610;BME280;41486;52.502;13.486;2022-07-18T04:28:29;101918.41;;;15.68;86.51
55610;BME280;41486;52.502;13.486;2022-07-18T04:30:57;101922.44;;;15.85;85.59
55610;BME280;41486;52.502;13.486;2022-07-18T04:33:25;101925.94;;;15.97;84.72
55610;BME280;41486;52.502;13.486;2022-07-18T04:35:53;101919.78;;;16.08;83.82
55610;BME280;41486;52.502;13.486;2022-07-18T04:38:21;101922.16;;;16.11;83.67
55610;BME280;41486;52.502;13.486;2022-07-18T04:40:49;101929.81;;;16.04;84.77
55610;BME280;41486;52.502;13.486;2022-07-18T04:43:17;101919.66;;;15.98;85.80
55610;BME280;41486;52.502;13.486;2022-07-18T04:45:46;101924.81;;;16.11;85.22
55610;BME280;41486;52.502;13.486;2022-07-18T04:48:14;101922.06;;;16.13;84.27
55610;BME280;41486;52.502;13.486;2022-07-18T04:50:42;101924.22;;;16.07;84.52
55610;BME280;41486;52.502;13.486;2022-07-18T04:53:10;101921.69;;;16.06;83.42
55610;BME280;41486;52.502;13.486;2022-07-18T04:55:38;101924.00;;;16.11;82.46
55610;BME280;41486;52.502;13.486;2022-07-18T04:58:06;101919.75;;;16.19;80.96
55610;BME280;41486;52.502;13.486;2022-07-18T05:00:34;101917.44;;;16.26;79.91
55610;BME280;41486;52.502;13.486;2022-07-18T05:03:03;101924.81;;;16.34;79.40
55610;BME280;41486;52.502;13.486;2022-07-18T05:05:31;101924.56;;;16.37;79.82
55610;BME280;41486;52.502;13.486;2022-07-18T05:08:03;101914.28;;;16.44;79.86
55610;BME280;41486;52.502;13.486;2022-07-18T05:10:31;101912.81;;;16.51;79.22
55610;BME280;41486;52.502;13.486;2022-07-18T05:12:59;101908.69;;;16.58;78.50
55610;BME280;41486;52.502;13.486;2022-07-18T05:15:28;101909.97;;;17.29;77.53
55610;BME280;41486;52.502;13.486;2022-07-18T05:17:55;101916.59;;;17.34;76.66
55610;BME280;41486;52.502;13.486;2022-07-18T05:20:26;101915.38;;;17.48;76.44
55610;BME280;41486;52.502;13.486;2022-07-18T05:22:57;101907.53;;;17.26;76.42
55610;BME280;41486;52.502;13.486;2022-07-18T05:25:25;101911.97;;;16.94;76.46
55610;BME280;41486;52.502;13.486;2022-07-18T05:27:53;101903.13;;;16.94;76.63
55610;BME280;41486;52.502;13.486;2022-07-18T05:30:21;101914.69;;;17.04;76.41
55610;BME280;41486;52.502;13.486;2022-07-18T05:32:51;101918.91;;;17.07;76.79
55610;BME280;41486;52.502;13.486;2022-07-18T05:35:20;101917.22;;;17.06;77.16
55610;BME280;41486;52.502;13.486;2022-07-18T05:37:52;101922.28;;;17.09;77.40
55610;BME280;41486;52.502;13.486;2022-07-18T05:40:20;101911.56;;;17.20;75.90
55610;BME280;41486;52.502;13.486;2022-07-18T05:42:50;101900.78;;;17.43;74.02
55610;BME280;41486;52.502;13.486;2022-07-18T05:45:22;101908.84;;;17.53;73.61
55610;BME280;41486;52.502;13.486;2022-07-18T05:47:50;101901.44;;;17.56;73.44
55610;BME280;41486;52.502;13.486;2022-07-18T05:50:18;101903.69;;;17.61;73.12
55610;BME280;41486;52.502;13.486;2022-07-18T05:52:53;101897.03;;;17.76;71.13
55610;BME280;41486;52.502;13.486;2022-07-18T05:55:22;101893.50;;;17.76;71.29
55610;BME280;41486;52.502;13.486;2022-07-18T05:57:50;101895.09;;;17.78;71.41
55610;BME280;41486;52.502;13.486;2022-07-18T06:00:19;101893.16;;;17.90;70.76
55610;BME280;41486;52.502;13.486;2022-07-18T06:02:48;101900.09;;;18.03;70.17
55610;BME280;41486;52.502;13.486;2022-07-18T06:05:17;101890.56;;;18.00;69.98
55610;BME280;41486;52.502;13.486;2022-07-18T06:07:53;101896.38;;;18.35;68.85
55610;BME280;41486;52.502;13.486;2022-07-18T06:10:22;101895.00;;;18.40;67.53
55610;BME280;41486;52.502;13.486;2022-07-18T06:12:51;101892.88;;;18.54;67.16
55610;BME280;41486;52.502;13.486;2022-07-18T06:15:19;101899.91;;;18.65;66.54
55610;BME280;41486;52.502;13.486;2022-07-18T06:17:47;101899.22;;;18.82;66.26
55610;BME280;41486;52.502;13.486;2022-07-18T06:20:15;101900.09;;;18.92;65.61
55610;BME280;41486;52.502;13.486;2022-07-18T06:22:43;101913.81;;;19.07;65.06
55610;BME280;41486;52.502;13.486;2022-07-18T06:25:12;101910.19;;;18.99;65.34
55610;BME280;41486;52.502;13.486;2022-07-18T06:27:40;101905.69;;;18.99;65.21
55610;BME280;41486;52.502;13.486;2022-07-18T06:30:09;101905.97;;;19.06;64.98
55610;BME280;41486;52.502;13.486;2022-07-18T06:32:38;101906.63;;;19.37;63.87
55610;BME280;41486;52.502;13.486;2022-07-18T06:35:07;101908.09;;;19.50;61.79
55610;BME280;41486;52.502;13.486;2022-07-18T06:37:36;101915.50;;;19.66;61.69
55610;BME280;41486;52.502;13.486;2022-07-18T06:40:05;101919.13;;;19.75;60.92
55610;BME280;41486;52.502;13.486;2022-07-18T06:42:35;101917.78;;;19.98;58.05
55610;BME280;41486;52.502;13.486;2022-07-18T06:45:04;101913.31;;;19.99;58.85
55610;BME280;41486;52.502;13.486;2022-07-18T06:47:39;101915.50;;;20.04;59.01
55610;BME280;41486;52.502;13.486;2022-07-18T06:50:08;101918.25;;;20.12;58.50
55610;BME280;41486;52.502;13.486;2022-07-18T06:52:37;101920.69;;;20.33;58.05
55610;BME280;41486;52.502;13.486;2022-07-18T06:55:09;101926.66;;;20.45;57.40
55610;BME280;41486;52.502;13.486;2022-07-18T06:57:39;101920.94;;;20.58;56.03
55610;BME280;41486;52.502;13.486;2022-07-18T07:00:08;101927.66;;;20.62;55.96
55610;BME280;41486;52.502;13.486;2022-07-18T07:02:41;101931.19;;;20.62;55.14
55610;BME280;41486;52.502;13.486;2022-07-18T07:05:12;101920.47;;;20.62;55.37
55610;BME280;41486;52.502;13.486;2022-07-18T07:07:40;101909.84;;;20.71;55.44
55610;BME280;41486;52.502;13.486;2022-07-18T07:10:14;101913.22;;;20.91;54.17
55610;BME280;41486;52.502;13.486;2022-07-18T07:12:46;101910.94;;;20.96;53.72
55610;BME280;41486;52.502;13.486;2022-07-18T07:15:15;101904.44;;;20.99;53.47
55610;BME280;41486;52.502;13.486;2022-07-18T07:17:43;101905.34;;;21.07;53.06
55610;BME280;41486;52.502;13.486;2022-07-18T07:20:12;101902.03;;;21.14;52.03
55610;BME280;41486;52.502;13.486;2022-07-18T07:22:42;101899.69;;;21.10;51.82
55610;BME280;41486;52.502;13.486;2022-07-18T07:25:10;101896.38;;;21.17;50.18
55610;BME280;41486;52.502;13.486;2022-07-18T07:27:38;101889.09;;;21.35;49.88
55610;BME280;41486;52.502;13.486;2022-07-18T07:30:10;101889.97;;;21.36;49.34
55610;BME280;41486;52.502;13.486;2022-07-18T07:32:39;101878.94;;;21.39;49.91
55610;BME280;41486;52.502;13.486;2022-07-18T07:35:09;101885.59;;;21.35;50.21
55610;BME280;41486;52.502;13.486;2022-07-18T07:37:39;101884.63;;;21.36;50.22
55610;BME280;41486;52.502;13.486;2022-07-18T07:40:08;101879.72;;;21.57;50.01
55610;BME280;41486;52.502;13.486;2022-07-18T07:42:36;101887.22;;;21.54;48.94
55610;BME280;41486;52.502;13.486;2022-07-18T07:45:05;101888.28;;;21.61;48.53
55610;BME280;41486;52.502;13.486;2022-07-18T07:47:35;101876.59;;;21.70;48.36
55610;BME280;41486;52.502;13.486;2022-07-18T07:50:05;101881.63;;;21.65;48.62
55610;BME280;41486;52.502;13.486;2022-07-18T07:52:34;101880.44;;;21.68;47.21
55610;BME280;41486;52.502;13.486;2022-07-18T07:55:02;101881.47;;;21.75;47.47
55610;BME280;41486;52.502;13.486;2022-07-18T07:57:30;101876.94;;;21.75;48.97
55610;BME280;41486;52.502;13.486;2022-07-18T08:00:03;101873.31;;;21.85;48.07
55610;BME280;41486;52.502;13.486;2022-07-18T08:02:49;101872.16;;;21.96;47.82
55610;BME280;41486;52.502;13.486;2022-07-18T08:05:25;101874.03;;;22.03;47.98
55610;BME280;41486;52.502;13.486;2022-07-18T08:07:54;101874.56;;;22.15;47.08
55610;BME280;41486;52.502;13.486;2022-07-18T08:10:22;101883.31;;;22.17;46.96
55610;BME280;41486;52.502;13.486;2022-07-18T08:12:50;101880.44;;;22.19;47.17
55610;BME280;41486;52.502;13.486;2022-07-18T08:15:18;101889.00;;;22.22;47.13
55610;BME280;41486;52.502;13.486;2022-07-18T08:17:47;101888.53;;;22.35;46.29
55610;BME280;41486;52.502;13.486;2022-07-18T08:20:16;101885.84;;;22.35;46.71
55610;BME280;41486;52.502;13.486;2022-07-18T08:22:55;101894.44;;;22.39;46.22
55610;BME280;41486;52.502;13.486;2022-07-18T08:25:24;101895.25;;;22.48;46.28
55610;BME280;41486;52.502;13.486;2022-07-18T08:27:52;101887.72;;;22.60;45.08
55610;BME280;41486;52.502;13.486;2022-07-18T08:30:20;101880.22;;;22.63;45.07
55610;BME280;41486;52.502;13.486;2022-07-18T08:32:50;101889.28;;;22.79;44.67
55610;BME280;41486;52.502;13.486;2022-07-18T08:35:20;101880.88;;;22.90;44.07
55610;BME280;41486;52.502;13.486;2022-07-18T08:37:48;101876.50;;;22.97;44.71
55610;BME280;41486;52.502;13.486;2022-07-18T08:40:17;101877.97;;;23.08;44.76
55610;BME280;41486;52.502;13.486;2022-07-18T08:42:45;101885.41;;;23.06;44.12
55610;BME280;41486;52.502;13.486;2022-07-18T08:45:33;101886.19;;;23.15;44.59
55610;BME280;41486;52.502;13.486;2022-07-18T08:48:03;101891.75;;;23.13;42.97
55610;BME280;41486;52.502;13.486;2022-07-18T08:50:31;101886.03;;;23.08;42.56
55610;BME280;41486;52.502;13.486;2022-07-18T08:52:59;101883.03;;;23.03;42.11
55610;BME280;41486;52.502;13.486;2022-07-18T08:55:29;101881.53;;;23.09;42.31
55610;BME280;41486;52.502;13.486;2022-07-18T08:57:57;101881.66;;;23.15;42.05
55610;BME280;41486;52.502;13.486;2022-07-18T09:00:46;101878.16;;;23.23;42.10
55610;BME280;41486;52.502;13.486;2022-07-18T09:03:15;101885.72;;;23.20;42.56
55610;BME280;41486;52.502;13.486;2022-07-18T09:05:43;101875.81;;;23.20;42.63
55610;BME280;41486;52.502;13.486;2022-07-18T09:08:13;101868.25;;;23.24;42.37
55610;BME280;41486;52.502;13.486;2022-07-18T09:10:50;101880.16;;;23.29;42.95
55610;BME280;41486;52.502;13.486;2022-07-18T09:13:22;101869.44;;;23.21;42.87
55610;BME280;41486;52.502;13.486;2022-07-18T09:15:59;101876.84;;;23.27;42.98
55610;BME280;41486;52.502;13.486;2022-07-18T09:18:31;101873.56;;;23.40;43.25
55610;BME280;41486;52.502;13.486;2022-07-18T09:21:04;101877.41;;;23.54;42.36
55610;BME280;41486;52.502;13.486;2022-07-18T09:23:34;101882.50;;;23.41;42.78
55610;BME280;41486;52.502;13.486;2022-07-18T09:26:02;101877.44;;;23.46;40.94
55610;BME280;41486;52.502;13.486;2022-07-18T09:28:45;101871.59;;;23.26;41.55
55610;BME280;41486;52.502;13.486;2022-07-18T09:31:35;101872.72;;;23.48;41.36
55610;BME280;41486;52.502;13.486;2022-07-18T09:34:04;101876.50;;;23.70;40.86
55610;BME280;41486;52.502;13.486;2022-07-18T09:36:33;101877.06;;;23.57;40.73
55610;BME280;41486;52.502;13.486;2022-07-18T09:39:17;101880.53;;;23.66;41.54
55610;BME280;41486;52.502;13.486;2022-07-18T09:41:46;101871.09;;;23.78;41.14
55610;BME280;41486;52.502;13.486;2022-07-18T09:44:14;101883.16;;;23.83;41.38
55610;BME280;41486;52.502;13.486;2022-07-18T09:46:58;101879.75;;;23.97;41.27
55610;BME280;41486;52.502;13.486;2022-07-18T09:49:29;101875.13;;;23.74;41.24
55610;BME280;41486;52.502;13.486;2022-07-18T09:52:03;101874.88;;;24.01;40.78
55610;BME280;41486;52.502;13.486;2022-07-18T09:54:36;101871.69;;;24.29;40.54
55610;BME280;41486;52.502;13.486;2022-07-18T09:57:04;101878.50;;;24.39;40.28
55610;BME280;41486;52.502;13.486;2022-07-18T09:59:34;101877.25;;;24.27;40.28
55610;BME280;41486;52.502;13.486;2022-07-18T10:02:12;101866.69;;;24.17;40.32
55610;BME280;41486;52.502;13.486;2022-07-18T10:04:43;101868.84;;;24.22;40.58
55610;BME280;41486;52.502;13.486;2022-07-18T10:07:12;101863.06;;;24.33;40.25
55610;BME280;41486;52.502;13.486;2022-07-18T10:09:41;101867.13;;;24.52;40.06
55610;BME280;41486;52.502;13.486;2022-07-18T10:12:13;101865.81;;;24.48;40.21
55610;BME280;41486;52.502;13.486;2022-07-18T10:14:43;101872.81;;;24.57;39.48
55610;BME280;41486;52.502;13.486;2022-07-18T10:17:12;101861.56;;;24.77;39.50
55610;BME280;41486;52.502;13.486;2022-07-18T10:19:41;101864.28;;;24.92;39.29
55610;BME280;41486;52.502;13.486;2022-07-18T10:22:10;101869.50;;;24.94;38.57
55610;BME280;41486;52.502;13.486;2022-07-18T10:24:40;101863.13;;;25.25;39.15
55610;BME280;41486;52.502;13.486;2022-07-18T10:27:12;101854.13;;;25.62;38.38
55610;BME280;41486;52.502;13.486;2022-07-18T10:30:08;101861.44;;;25.69;38.02
55610;BME280;41486;52.502;13.486;2022-07-18T10:32:37;101863.50;;;26.03;37.14
55610;BME280;41486;52.502;13.486;2022-07-18T10:35:08;101859.31;;;25.64;37.50
55610;BME280;41486;52.502;13.486;2022-07-18T10:37:41;101858.84;;;25.75;37.20
55610;BME280;41486;52.502;13.486;2022-07-18T10:40:23;101860.19;;;25.49;38.03
55610;BME280;41486;52.502;13.486;2022-07-18T10:43:30;101860.72;;;25.96;37.25
55610;BME280;41486;52.502;13.486;2022-07-18T10:46:00;101860.97;;;26.17;36.50
55610;BME280;41486;52.502;13.486;2022-07-18T10:48:48;101859.19;;;26.45;36.00
55610;BME280;41486;52.502;13.486;2022-07-18T10:51:19;101856.69;;;26.44;36.63
55610;BME280;41486;52.502;13.486;2022-07-18T10:54:12;101852.81;;;26.32;36.59
55610;BME280;41486;52.502;13.486;2022-07-18T10:57:06;101851.63;;;25.97;37.06
55610;BME280;41486;52.502;13.486;2022-07-18T10:59:58;101850.72;;;26.27;36.72
55610;BME280;41486;52.502;13.486;2022-07-18T11:02:33;101846.53;;;26.46;35.73
55610;BME280;41486;52.502;13.486;2022-07-18T11:05:02;101840.63;;;26.36;35.53
55610;BME280;41486;52.502;13.486;2022-07-18T11:07:32;101845.97;;;26.29;35.98
55610;BME280;41486;52.502;13.486;2022-07-18T11:10:00;101845.34;;;26.55;36.23
55610;BME280;41486;52.502;13.486;2022-07-18T11:12:29;101843.03;;;26.74;35.60
55610;BME280;41486;52.502;13.486;2022-07-18T11:15:03;101832.63;;;26.99;35.27
55610;BME280;41486;52.502;13.486;2022-07-18T11:17:57;101842.16;;;27.72;34.01
55610;BME280;41486;52.502;13.486;2022-07-18T11:20:37;101839.09;;;27.95;33.09
55610;BME280;41486;52.502;13.486;2022-07-18T11:23:14;101842.09;;;28.41;32.20
55610;BME280;41486;52.502;13.486;2022-07-18T11:25:45;101826.72;;;28.82;31.29
55610;BME280;41486;52.502;13.486;2022-07-18T11:28:24;101835.72;;;29.48;30.77
55610;BME280;41486;52.502;13.486;2022-07-18T11:31:00;101836.44;;;29.75;29.58
55610;BME280;41486;52.502;13.486;2022-07-18T11:33:31;101832.88;;;30.13;28.37
55610;BME280;41486;52.502;13.486;2022-07-18T11:36:03;101821.38;;;29.79;29.46
55610;BME280;41486;52.502;13.486;2022-07-18T11:38:33;101818.22;;;29.37;29.98
55610;BME280;41486;52.502;13.486;2022-07-18T11:41:02;101821.25;;;29.02;30.82
55610;BME280;41486;52.502;13.486;2022-07-18T11:43:31;101815.59;;;29.03;31.56
55610;BME280;41486;52.502;13.486;2022-07-18T11:46:01;101811.63;;;29.19;31.33
55610;BME280;41486;52.502;13.486;2022-07-18T11:48:30;101807.25;;;29.64;30.83
55610;BME280;41486;52.502;13.486;2022-07-18T11:50:58;101798.25;;;29.31;32.10
55610;BME280;41486;52.502;13.486;2022-07-18T11:53:26;101803.56;;;30.22;30.41
55610;BME280;41486;52.502;13.486;2022-07-18T11:56:04;101796.59;;;30.33;29.29
55610;BME280;41486;52.502;13.486;2022-07-18T11:58:35;101800.97;;;31.22;28.73
55610;BME280;41486;52.502;13.486;2022-07-18T12:01:04;101801.75;;;31.10;27.71
55610;BME280;41486;52.502;13.486;2022-07-18T12:03:34;101805.78;;;31.01;27.92
55610;BME280;41486;52.502;13.486;2022-07-18T12:06:10;101790.50;;;30.81;28.24
55610;BME280;41486;52.502;13.486;2022-07-18T12:08:40;101799.41;;;31.14;27.84
55610;BME280;41486;52.502;13.486;2022-07-18T12:11:16;101795.66;;;31.76;27.62
55610;BME280;41486;52.502;13.486;2022-07-18T12:13:49;101792.63;;;31.66;26.62
55610;BME280;41486;52.502;13.486;2022-07-18T12:16:27;101796.41;;;32.85;25.40
55610;BME280;41486;52.502;13.486;2022-07-18T12:18:57;101794.47;;;30.86;27.06
55610;BME280;41486;52.502;13.486;2022-07-18T12:21:45;101790.25;;;31.57;27.19
55610;BME280;41486;52.502;13.486;2022-07-18T12:24:32;101781.47;;;31.06;27.47
55610;BME280;41486;52.502;13.486;2022-07-18T12:27:16;101773.03;;;30.27;28.43
55610;BME280;41486;52.502;13.486;2022-07-18T12:29:55;101783.03;;;29.69;29.41
55610;BME280;41486;52.502;13.486;2022-07-18T12:32:26;101772.25;;;29.55;29.16
55610;BME280;41486;52.502;13.486;2022-07-18T12:34:56;101778.69;;;29.68;28.51
55610;BME280;41486;52.502;13.486;2022-07-18T12:37:24;101780.47;;;29.28;28.81
55610;BME280;41486;52.502;13.486;2022-07-18T12:39:57;101775.03;;;28.76;29.67
55610;BME280;41486;52.502;13.486;2022-07-18T12:42:46;101784.03;;;28.43;29.84
55610;BME280;41486;52.502;13.486;2022-07-18T12:45:15;101775.06;;;28.23;30.46
55610;BME280;41486;52.502;13.486;2022-07-18T12:50:31;101768.16;;;28.60;29.93
55610;BME280;41486;52.502;13.486;2022-07-18T12:52:59;101772.34;;;28.43;30.42
55610;BME280;41486;52.502;13.486;2022-07-18T12:55:28;101759.47;;;28.11;30.98
55610;BME280;41486;52.502;13.486;2022-07-18T12:58:01;101757.38;;;28.47;30.60
55610;BME280;41486;52.502;13.486;2022-07-18T13:00:30;101751.72;;;28.48;30.39